Time;durP1;ratioP1;P1;durP2;ratioP2;P2;SDS_P1;SDS_P2;PMS_P1;PMS_P2;Temp;Humidity;BMP_temperature;BMP_pressure;BME280_temperature;BME280_humidity;BME280_pressure;Samples;Min_cycle;Max_cycle;Signal;HPM_P1;HPM_P2
2023/12/05 00:01:39;;;;;;;;;;;;;;;;;;4803166;29;20103;-66
2023/12/05 00:04:05;;;;;;;0.93;0.93;;;;;;;;;;4803404;29;20029;-68
2023/12/05 00:06:31;;;;;;;2.90;1.23;;;;;;;;;;4804696;29;20159;-67
2023/12/05 00:08:57;;;;;;;2.00;1.90;;;;;;;;;;4806662;29;20054;-67
2023/12/05 00:11:25;;;;;;;1.23;1.17;;;;;;;;;;4805833;29;20051;-67
2023/12/05 00:13:51;;;;;;;0.52;0.52;;;;;;;;;;4806196;29;20062;-68
2023/12/05 00:16:17;;;;;;;1.30;0.85;;;;;;;;;;4805923;29;20201;-67
2023/12/05 00:18:46;;;;;;;2.15;2.05;;;;;;;;;;4806365;29;20061;-67
2023/12/05 00:21:12;;;;;;;0.77;0.77;;;;;;;;;;4806001;29;20062;-67
2023/12/05 00:23:38;;;;;;;1.38;1.38;;;;;;;;;;4806076;29;20100;-67
2023/12/05 00:26:04;;;;;;;1.25;1.17;;;;;;;;;;4806136;29;20054;-67
2023/12/05 00:28:31;;;;;;;2.90;1.35;;;;;;;;;;4805596;29;20055;-68
2023/12/05 00:30:57;;;;;;;2.92;1.58;;;;;;;;;;4805831;29;20070;-67
2023/12/05 00:33:22;;;;;;;1.52;1.42;;;-0.10;43.30;;;;;;4805890;29;20138;-68
2023/12/05 00:35:48;;;;;;;1.08;0.98;;;;;;;;;;4805677;29;20134;-67
2023/12/05 00:38:14;;;;;;;0.90;0.90;;;;;;;;;;4805938;29;20507;-67
2023/12/05 00:40:40;;;;;;;1.33;1.23;;;;;;;;;;4805578;29;20483;-67
2023/12/05 00:43:06;;;;;;;1.05;1.00;;;;;;;;;;4806039;29;20055;-67
2023/12/05 00:45:33;;;;;;;4.65;1.50;;;;;;;;;;4805464;29;20058;-66
2023/12/05 00:47:59;;;;;;;;;;;;;;;;;;4806508;29;20138;-68
2023/12/05 00:50:25;;;;;;;0.95;0.95;;;;;;;;;;4805368;29;19999;-67
2023/12/05 00:52:51;;;;;;;1.52;1.42;;;;;;;;;;4805816;29;20192;-67
2023/12/05 00:55:17;;;;;;;1.00;0.98;;;;;;;;;;4805702;29;20050;-67
2023/12/05 00:57:43;;;;;;;2.50;1.17;;;;;;;;;;4805528;29;20070;-67
2023/12/05 01:00:13;;;;;;;0.75;0.47;;;;;;;;;;4805145;29;20055;-66
2023/12/05 01:02:39;;;;;;;0.30;0.30;;;;;;;;;;4805320;29;20519;-66
2023/12/05 01:05:08;;;;;;;;;;;;;;;;;;4805834;29;20062;-67
2023/12/05 01:07:35;;;;;;;1.25;1.15;;;;;;;;;;4805481;29;19936;-67
2023/12/05 01:10:01;;;;;;;1.00;1.00;;;;;;;;;;4805536;29;20138;-66
2023/12/05 01:12:27;;;;;;;1.15;0.77;;;;;;;;;;4805799;29;20101;-68
2023/12/05 01:14:53;;;;;;;1.77;1.67;;;;;;;;;;4805111;29;20054;-67
2023/12/05 01:17:19;;;;;;;1.08;1.08;;;;;;;;;;4805256;29;20050;-66
2023/12/05 01:19:45;;;;;;;2.28;2.17;;;;;;;;;;4805126;29;20051;-66
2023/12/05 01:22:10;;;;;;;0.88;0.82;;;2.00;55.70;;;;;;4805707;29;20065;-67
2023/12/05 01:24:36;;;;;;;0.77;0.77;;;1.40;55.40;;;;;;4805456;29;20046;-67
2023/12/05 01:27:03;;;;;;;1.38;1.38;;;;;;;;;;4805626;29;20701;-66
2023/12/05 01:29:29;;;;;;;2.67;1.50;;;;;;;;;;4805199;29;20054;-66
2023/12/05 01:31:55;;;;;;;4.13;1.35;;;;;;;;;;4805468;29;20057;-67
2023/12/05 01:34:21;;;;;;;0.93;0.93;;;;;;;;;;4805089;29;20516;-67
2023/12/05 01:36:47;;;;;;;0.73;0.73;;;;;;;;;;4805320;29;20069;-67
2023/12/05 01:39:14;;;;;;;0.63;0.63;;;;;;;;;;4789010;29;20092;-67
2023/12/05 01:41:40;;;;;;;2.75;1.63;;;;;;;;;;4804885;29;20163;-67
2023/12/05 01:44:06;;;;;;;3.83;1.25;;;;;;;;;;4805082;29;20079;-67
2023/12/05 01:46:32;;;;;;;0.47;0.47;;;;;;;;;;4779879;29;20397;-67
2023/12/05 01:48:59;;;;;;;0.80;0.80;;;;;;;;;;4802604;29;20051;-67
2023/12/05 01:51:26;;;;;;;0.63;0.63;;;-1.20;62.40;;;;;;4804790;29;20087;-68
2023/12/05 01:53:52;;;;;;;1.45;1.35;;;2.30;68.00;;;;;;4804722;29;20058;-67
2023/12/05 01:56:18;;;;;;;1.90;1.70;;;;;;;;;;4804974;29;20051;-67
2023/12/05 01:58:45;;;;;;;1.67;1.35;;;;;;;;;;4804693;29;20213;-68
2023/12/05 02:01:15;;;;;;;1.58;1.48;;;;;;;;;;4804801;29;20616;-67
2023/12/05 02:03:42;;;;;;;2.22;2.05;;;-0.70;68.40;;;;;;4804603;29;20467;-68
2023/12/05 02:06:09;;;;;;;1.10;1.10;;;;;;;;;;4804817;29;20047;-67
2023/12/05 02:08:35;;;;;;;3.42;0.95;;;;;;;;;;4804286;29;20057;-67
2023/12/05 02:11:01;;;;;;;2.03;1.83;;;;;;;;;;4804592;29;20059;-67
2023/12/05 02:13:27;;;;;;;1.35;1.25;;;0.40;70.00;;;;;;4804729;29;20380;-67
2023/12/05 02:16:12;;;;;;;2.08;1.95;;;;;;;;;;4804735;29;20070;-67
2023/12/05 02:18:42;;;;;;;0.63;0.60;;;;;;;;;;4794002;29;20055;-67
2023/12/05 02:21:24;;;;;;;1.30;1.20;;;-1.40;69.80;;;;;;4804202;29;20135;-67
2023/12/05 02:23:59;;;;;;;0.82;0.82;;;;;;;;;;4804634;29;20086;-67
2023/12/05 02:26:28;;;;;;;0.90;0.90;;;;;;;;;;4804100;29;20050;-67
2023/12/05 02:28:55;;;;;;;3.60;1.27;;;;;;;;;;4803727;29;20575;-67
2023/12/05 02:31:21;;;;;;;1.17;0.98;;;;;;;;;;4804232;29;20134;-67
2023/12/05 02:33:47;;;;;;;8.68;2.67;;;;;;;;;;4804359;29;20055;-67
2023/12/05 02:36:28;;;;;;;0.80;0.80;;;;;;;;;;4804318;29;20139;-67
2023/12/05 02:39:03;;;;;;;1.42;0.80;;;;;;;;;;4804257;29;20058;-67
2023/12/05 02:41:32;;;;;;;2.60;1.92;;;2.00;69.90;;;;;;4804229;29;20499;-67
2023/12/05 02:44:09;;;;;;;0.65;0.65;;;-0.20;68.20;;;;;;4798793;29;20063;-67
2023/12/05 02:46:37;;;;;;;1.08;0.73;;;1.60;67.90;;;;;;4804244;29;20066;-67
2023/12/05 02:49:04;;;;;;;1.05;1.05;;;1.40;72.00;;;;;;4788157;29;20133;-67
2023/12/05 02:51:30;;;;;;;1.10;1.10;;;;;;;;;;4787892;29;20050;-67
2023/12/05 02:54:01;;;;;;;1.13;1.13;;;;;;;;;;4803581;29;20051;-67
2023/12/05 02:56:29;;;;;;;1.42;1.02;;;;;;;;;;4803920;29;20062;-68
2023/12/05 02:58:55;;;;;;;2.65;1.77;;;;;;;;;;4803838;29;20047;-67
2023/12/05 03:01:21;;;;;;;3.55;2.30;;;;;;;;;;4802901;29;20221;-67
2023/12/05 03:03:47;;;;;;;0.77;0.77;;;;;;;;;;4803733;29;20058;-67
2023/12/05 03:06:13;;;;;;;0.95;0.90;;;;;;;;;;4803874;29;20062;-67
2023/12/05 03:08:39;;;;;;;0.75;0.75;;;;;;;;;;4803625;29;20055;-67
2023/12/05 03:11:05;;;;;;;1.50;1.40;;;;;;;;;;4804110;29;20062;-67
2023/12/05 03:13:31;;;;;;;0.88;0.88;;;;;;;;;;4803515;29;20480;-67
2023/12/05 03:15:57;;;;;;;1.58;1.48;;;;;;;;;;4803772;29;20797;-67
2023/12/05 03:18:26;;;;;;;;;;;-1.10;68.30;;;;;;4803936;29;20157;-67
2023/12/05 03:20:52;;;;;;;2.35;2.15;;;;;;;;;;4803788;29;19936;-67
2023/12/05 03:23:18;;;;;;;0.98;0.93;;;;;;;;;;4803956;29;20043;-67
2023/12/05 03:25:44;;;;;;;;;;;;;;;;;;4804112;29;20062;-69
2023/12/05 03:28:10;;;;;;;1.90;1.80;;;;;;;;;;4803378;29;20425;-67
2023/12/05 03:30:36;;;;;;;1.95;1.80;;;;;;;;;;4803524;29;20054;-67
2023/12/05 03:33:03;;;;;;;0.90;0.90;;;;;;;;;;4803812;29;20127;-67
2023/12/05 03:35:29;;;;;;;;;;;;;;;;;;4787514;29;20434;-67
2023/12/05 03:37:55;;;;;;;3.60;1.20;;;;;;;;;;4803198;29;19929;-69
2023/12/05 03:40:21;;;;;;;4.57;2.08;;;;;;;;;;4804817;29;20470;-67
2023/12/05 03:42:47;;;;;;;1.55;1.25;;;;;;;;;;4806334;29;20063;-67
2023/12/05 03:45:13;;;;;;;2.53;1.92;;;;;;;;;;4807084;29;20101;-68
2023/12/05 03:47:39;;;;;;;1.23;1.23;;;;;;;;;;4807108;29;20086;-67
2023/12/05 03:50:06;;;;;;;0.63;0.63;;;;;;;;;;4807256;29;20115;-67
2023/12/05 03:52:32;;;;;;;1.50;1.40;;;;;;;;;;4806668;29;20054;-67
2023/12/05 03:54:57;;;;;;;0.88;0.88;;;1.70;64.40;;;;;;4807339;29;20047;-67
2023/12/05 03:57:23;;;;;;;3.55;3.25;;;;;;;;;;4805666;29;20100;-66
2023/12/05 03:59:49;;;;;;;2.17;2.00;;;;;;;;;;4807339;29;20074;-67
2023/12/05 04:02:15;;;;;;;2.25;2.10;;;;;;;;;;4806902;29;20050;-67
2023/12/05 04:04:42;;;;;;;4.05;1.52;;;;;;;;;;4806804;29;20051;-67
2023/12/05 04:07:08;;;;;;;1.17;1.10;;;;;;;;;;4806210;29;20104;-67
2023/12/05 04:09:34;;;;;;;0.98;0.68;;;;;;;;;;4795417;29;20059;-67
2023/12/05 04:12:00;;;;;;;0.95;0.95;;;;;;;;;;4806573;29;20050;-67
2023/12/05 04:14:26;;;;;;;0.90;0.90;;;;;;;;;;4806581;29;20180;-67
2023/12/05 04:16:52;;;;;;;1.52;1.33;;;;;;;;;;4806427;29;20844;-67
2023/12/05 04:19:18;;;;;;;11.38;2.28;;;;;;;;;;4806596;29;20495;-67
2023/12/05 04:21:44;;;;;;;4.18;2.75;;;;;;;;;;4806437;29;20493;-67
2023/12/05 04:24:10;;;;;;;2.58;2.38;;;;;;;;;;4806468;29;20486;-67
2023/12/05 04:26:36;;;;;;;3.63;1.85;;;;;;;;;;4806322;29;20444;-66
2023/12/05 04:29:02;;;;;;;0.98;0.98;;;1.50;72.10;;;;;;4806570;29;20050;-67
2023/12/05 04:31:28;;;;;;;2.03;1.92;;;;;;;;;;4806324;29;20553;-67
2023/12/05 04:33:54;;;;;;;0.85;0.85;;;;;;;;;;4806399;29;20051;-68
2023/12/05 04:36:20;;;;;;;2.42;2.22;;;;;;;;;;4806566;29;20051;-67
2023/12/05 04:38:45;;;;;;;1.70;1.60;;;2.30;73.20;;;;;;4806301;29;20069;-67
2023/12/05 04:41:11;;;;;;;7.60;2.00;;;;;;;;;;4806664;29;20487;-67
2023/12/05 04:43:37;;;;;;;2.42;0.82;;;;;;;;;;4806055;29;20316;-69
2023/12/05 04:46:04;;;;;;;1.58;1.45;;;;;;;;;;4806390;29;20605;-68
2023/12/05 04:48:30;;;;;;;1.38;1.20;;;;;;;;;;4805897;29;20181;-67
2023/12/05 04:50:56;;;;;;;0.60;0.60;;;;;;;;;;4805945;29;20086;-67
2023/12/05 04:53:22;;;;;;;1.25;1.20;;;;;;;;;;4805436;29;20499;-68
2023/12/05 04:55:48;;;;;;;1.20;1.20;;;;;;;;;;4789668;29;20082;-67
2023/12/05 04:58:14;;;;;;;1.67;1.58;;;;;;;;;;4804757;29;20065;-68
2023/12/05 05:00:40;;;;;;;2.55;1.65;;;1.80;77.30;;;;;;4805561;29;20556;-67
2023/12/05 05:03:06;;;;;;;1.15;1.15;;;;;;;;;;4806308;29;20091;-68
2023/12/05 05:05:32;;;;;;;1.52;1.27;;;;;;;;;;4805593;29;20054;-67
2023/12/05 05:07:58;;;;;;;2.38;2.13;;;;;;;;;;4805695;29;20051;-67
2023/12/05 05:10:24;;;;;;;8.68;1.52;;;;;;;;;;4789462;29;20053;-67
2023/12/05 05:12:50;;;;;;;1.00;0.98;;;;;;;;;;4805790;29;20130;-68
2023/12/05 05:15:16;;;;;;;0.68;0.68;;;;;;;;;;4805687;29;20057;-67
2023/12/05 05:17:42;;;;;;;2.95;2.03;;;;;;;;;;4805675;29;20108;-67
2023/12/05 05:20:08;;;;;;;2.65;2.45;;;;;;;;;;4805471;29;20054;-67
2023/12/05 05:22:35;;;;;;;0.68;0.60;;;;;;;;;;4805520;29;20415;-67
2023/12/05 05:25:01;;;;;;;0.98;0.98;;;2.50;86.00;;;;;;4805746;29;20050;-67
2023/12/05 05:27:27;;;;;;;1.10;1.10;;;;;;;;;;4804976;29;20519;-67
2023/12/05 05:29:53;;;;;;;3.20;1.88;;;;;;;;;;4789594;29;20514;-67
2023/12/05 05:32:19;;;;;;;1.77;1.00;;;;;;;;;;4805356;29;20104;-67
2023/12/05 05:34:45;;;;;;;1.63;1.40;;;;;;;;;;4805764;29;20063;-67
2023/12/05 05:37:11;;;;;;;3.28;1.88;;;;;;;;;;4805143;29;20090;-67
2023/12/05 05:39:37;;;;;;;4.85;2.55;;;;;;;;;;4805383;29;20073;-68
2023/12/05 05:42:03;;;;;;;2.15;2.00;;;2.20;89.70;;;;;;4804961;29;20058;-67
2023/12/05 05:44:29;;;;;;;0.68;0.68;;;;;;;;;;4805236;29;20058;-67
2023/12/05 05:46:55;;;;;;;0.98;0.88;;;;;;;;;;4805058;29;20051;-67
2023/12/05 05:49:21;;;;;;;0.77;0.77;;;;;;;;;;4788901;29;20053;-67
2023/12/05 05:51:47;;;;;;;0.80;0.80;;;;;;;;;;4788458;29;20059;-67
2023/12/05 05:54:13;;;;;;;3.15;2.45;;;;;;;;;;4804662;29;20054;-67
2023/12/05 05:56:39;;;;;;;1.55;1.45;;;;;;;;;;4804588;29;20097;-68
2023/12/05 05:59:05;;;;;;;3.70;1.27;;;;;;;;;;4805010;29;20119;-67
2023/12/05 06:01:32;;;;;;;1.40;1.40;;;;;;;;;;4804489;29;20074;-68
2023/12/05 06:03:58;;;;;;;0.80;0.80;;;;;;;;;;4804279;29;20054;-67
2023/12/05 06:06:24;;;;;;;0.95;0.95;;;;;;;;;;4804490;29;20093;-68
2023/12/05 06:08:50;;;;;;;1.20;1.15;;;;;;;;;;4805006;29;20073;-68
2023/12/05 06:11:17;;;;;;;0.90;0.88;;;;;;;;;;4804295;29;20188;-69
2023/12/05 06:13:43;;;;;;;0.40;0.40;;;;;;;;;;4804761;29;20082;-67
2023/12/05 06:16:10;;;;;;;0.68;0.68;;;;;;;;;;4804378;29;20055;-68
2023/12/05 06:18:38;;;;;;;1.02;1.02;;;-1.70;89.40;;;;;;4804379;29;20396;-67
2023/12/05 06:21:04;;;;;;;3.00;1.70;;;;;;;;;;4804308;29;20102;-68
2023/12/05 06:23:30;;;;;;;1.50;1.33;;;;;;;;;;4804446;29;20051;-67
2023/12/05 06:25:56;;;;;;;1.05;0.88;;;;;;;;;;4804134;29;20500;-68
2023/12/05 06:28:22;;;;;;;1.00;1.00;;;;;;;;;;4804413;29;20563;-67
2023/12/05 06:30:48;;;;;;;3.35;3.00;;;;;;;;;;4804417;29;20047;-67
2023/12/05 06:33:14;;;;;;;1.42;1.33;;;;;;;;;;4804364;29;20043;-67
2023/12/05 06:35:40;;;;;;;1.80;1.70;;;;;;;;;;4804248;29;20088;-68
2023/12/05 06:38:06;;;;;;;3.90;2.00;;;;;;;;;;4804429;29;20062;-67
2023/12/05 06:40:32;;;;;;;0.52;0.52;;;;;;;;;;4804250;29;20496;-67
2023/12/05 06:42:58;;;;;;;2.08;1.98;;;;;;;;;;4803951;29;20500;-67
2023/12/05 06:45:24;;;;;;;2.38;0.93;;;2.00;88.70;;;;;;4804015;29;20059;-67
2023/12/05 06:47:50;;;;;;;5.10;2.30;;;;;;;;;;4804592;29;20075;-68
2023/12/05 06:50:16;;;;;;;1.42;1.33;;;;;;;;;;4803703;29;20296;-68
2023/12/05 06:52:42;;;;;;;3.00;1.90;;;;;;;;;;4804264;29;20130;-67
2023/12/05 06:55:09;;;;;;;1.42;1.40;;;;;;;;;;4804099;29;20062;-67
2023/12/05 06:57:35;;;;;;;1.85;1.45;;;;;;;;;;4803863;29;20606;-68
2023/12/05 07:00:03;;;;;;;1.02;0.98;;;;;;;;;;4803979;29;20061;-68
2023/12/05 07:02:29;;;;;;;0.77;0.77;;;;;;;;;;4804062;29;20445;-67
2023/12/05 07:04:57;;;;;;;2.63;2.28;;;;;;;;;;4803850;29;20058;-69
2023/12/05 07:07:24;;;;;;;1.65;1.55;;;;;;;;;;4803922;29;20492;-67
2023/12/05 07:09:51;;;;;;;0.77;0.68;;;;;;;;;;4803777;29;20063;-67
2023/12/05 07:12:17;;;;;;;;;;;;;;;;;;4796172;29;20428;-69
2023/12/05 07:14:43;;;;;;;1.23;1.17;;;;;;;;;;4790993;29;19933;-67
2023/12/05 07:17:09;;;;;;;1.45;1.35;;;;;;;;;;4803441;29;20055;-67
2023/12/05 07:19:35;;;;;;;1.88;1.63;;;;;;;;;;4801378;29;20086;-67
2023/12/05 07:22:01;;;;;;;;;;;-1.10;90.60;;;;;;4803676;29;20058;-67
2023/12/05 07:24:27;;;;;;;1.27;1.20;;;;;;;;;;4803104;29;20005;-67
2023/12/05 07:26:53;;;;;;;1.67;1.52;;;;;;;;;;4803480;29;20134;-67
2023/12/05 07:29:19;;;;;;;5.07;1.58;;;;;;;;;;4802274;29;20051;-68
2023/12/05 07:31:45;;;;;;;0.68;0.68;;;;;;;;;;4803065;29;20518;-68
2023/12/05 07:34:11;;;;;;;1.83;1.70;;;1.90;91.90;;;;;;4803089;29;20050;-68
2023/12/05 07:36:41;;;;;;;1.17;1.08;;;;;;;;;;4802923;29;20061;-68
2023/12/05 07:39:09;;;;;;;3.60;2.25;;;;;;;;;;4803297;29;20057;-68
2023/12/05 07:41:35;;;;;;;1.30;1.27;;;;;;;;;;4803203;29;20131;-69
2023/12/05 07:44:01;;;;;;;1.80;1.50;;;;;;;;;;4801815;29;20063;-68
2023/12/05 07:46:28;;;;;;;1.52;1.35;;;;;;;;;;4803392;29;20046;-68
2023/12/05 07:48:54;;;;;;;1.77;1.67;;;;;;;;;;4803107;29;20051;-69
2023/12/05 07:51:20;;;;;;;1.40;1.35;;;;;;;;;;4802653;29;20082;-68
2023/12/05 07:53:48;;;;;;;0.82;0.82;;;;;;;;;;4802651;29;20046;-69
2023/12/05 07:56:14;;;;;;;1.55;1.23;;;;;;;;;;4802912;29;20428;-69
2023/12/05 07:58:40;;;;;;;1.75;1.65;;;;;;;;;;4802034;29;20082;-68
2023/12/05 08:01:07;;;;;;;2.17;2.08;;;;;;;;;;4803251;29;20058;-69
2023/12/05 08:03:34;;;;;;;2.60;1.80;;;;;;;;;;4802562;29;20050;-68
2023/12/05 08:06:03;;;;;;;1.75;1.63;;;;;;;;;;4802787;29;20055;-67
2023/12/05 08:08:35;;;;;;;2.53;1.52;;;1.30;94.90;;;;;;4802309;29;20111;-68
2023/12/05 08:11:02;;;;;;;1.63;1.52;;;;;;;;;;4786450;29;20406;-68
2023/12/05 08:13:28;;;;;;;1.77;1.67;;;;;;;;;;4802408;29;20115;-69
2023/12/05 08:15:54;;;;;;;7.47;1.75;;;-1.50;92.80;;;;;;4802330;29;20461;-68
2023/12/05 08:18:21;;;;;;;3.05;2.45;;;;;;;;;;4801892;29;20050;-70
2023/12/05 08:20:47;;;;;;;1.30;1.23;;;;;;;;;;4801422;29;20085;-68
2023/12/05 08:23:13;;;;;;;1.90;1.20;;;;;;;;;;4801135;29;20133;-68
2023/12/05 08:25:39;;;;;;;0.95;0.95;;;;;;;;;;4801518;29;20054;-69
2023/12/05 08:28:05;;;;;;;1.60;1.52;;;;;;;;;;4804923;29;20043;-67
2023/12/05 08:30:31;;;;;;;2.47;2.08;;;;;;;;;;4806449;29;20131;-67
2023/12/05 08:32:57;;;;;;;2.22;1.48;;;;;;;;;;4806526;29;20125;-68
2023/12/05 08:35:24;;;;;;;4.38;1.80;;;;;;;;;;4806449;29;20051;-67
2023/12/05 08:37:50;;;;;;;1.25;1.23;;;;;;;;;;4806563;29;20134;-67
2023/12/05 08:40:17;;;;;;;1.45;1.42;;;;;;;;;;4805943;29;20055;-68
2023/12/05 08:42:43;;;;;;;1.80;1.23;;;;;;;;;;4799487;29;20328;-68
2023/12/05 08:45:11;;;;;;;2.40;1.33;;;;;;;;;;4805430;29;20408;-68
2023/12/05 08:47:40;;;;;;;3.03;2.63;;;;;;;;;;4803568;29;20062;-68
2023/12/05 08:50:07;;;;;;;1.52;1.42;;;;;;;;;;4805567;29;20054;-69
2023/12/05 08:52:34;;;;;;;1.95;1.85;;;;;;;;;;4789537;29;20065;-67
2023/12/05 08:55:03;;;;;;;0.70;0.70;;;;;;;;;;4804591;29;20065;-69
2023/12/05 08:57:29;;;;;;;1.05;1.05;;;1.60;68.60;;;;;;4794179;29;20088;-68
2023/12/05 08:59:55;;;;;;;2.50;2.17;;;;;;;;;;4805135;29;20050;-68
2023/12/05 09:02:21;;;;;;;1.65;1.55;;;;;;;;;;4805893;29;20490;-69
2023/12/05 09:04:47;;;;;;;1.83;1.73;;;-0.40;64.20;;;;;;4804190;29;20047;-70
2023/12/05 09:07:13;;;;;;;1.27;1.17;;;;;;;;;;4804961;29;20054;-70
2023/12/05 09:09:42;;;;;;;2.80;2.17;;;;;;;;;;4805559;29;20055;-69
2023/12/05 09:12:08;;;;;;;1.25;1.15;;;;;;;;;;4804861;29;20506;-70
2023/12/05 09:14:35;;;;;;;0.88;0.88;;;;;;;;;;4805282;29;20057;-70
2023/12/05 09:17:01;;;;;;;0.70;0.70;;;;;;;;;;4781009;29;20867;-68
2023/12/05 09:19:27;;;;;;;;;;;1.70;52.70;;;;;;4804325;29;20062;-69
2023/12/05 09:21:53;;;;;;;2.15;1.75;;;;;;;;;;4804466;29;20679;-68
2023/12/05 09:24:19;;;;;;;3.42;2.28;;;0.20;52.90;;;;;;4804016;29;20596;-70
2023/12/05 09:26:45;;;;;;;1.65;1.55;;;-0.10;47.20;;;;;;4804141;29;20054;-68
2023/12/05 09:29:11;;;;;;;1.35;1.25;;;;;;;;;;4804397;29;20046;-69
2023/12/05 09:31:37;;;;;;;2.13;1.95;;;;;;;;;;4803357;29;20069;-71
2023/12/05 09:34:03;;;;;;;23.20;1.95;;;;;;;;;;4804243;29;20043;-69
2023/12/05 09:36:30;;;;;;;3.63;2.40;;;0.70;41.90;;;;;;4804532;29;20043;-69
2023/12/05 09:38:59;;;;;;;1.92;1.70;;;;;;;;;;4804039;29;20452;-74
2023/12/05 09:41:27;;;;;;;4.32;2.95;;;1.90;40.20;;;;;;4804189;29;20088;-70
2023/12/05 09:43:54;;;;;;;2.80;1.55;;;;;;;;;;4803538;29;20062;-70
2023/12/05 09:46:25;;;;;;;1.67;1.58;;;;;;;;;;4803542;29;20094;-72
2023/12/05 09:48:54;;;;;;;4.25;2.03;;;;;;;;;;4803581;29;20055;-70
2023/12/05 09:51:22;;;;;;;0.80;0.80;;;;;;;;;;4787907;29;20495;-70
2023/12/05 09:53:48;;;;;;;1.50;1.40;;;-0.20;33.20;;;;;;4803335;29;20055;-70
2023/12/05 09:56:14;;;;;;;0.60;0.60;;;;;;;;;;4804196;29;20047;-72
2023/12/05 09:58:42;;;;;;;4.93;2.40;;;;;;;;;;4802691;29;20088;-70
2023/12/05 10:01:09;;;;;;;3.53;1.70;;;1.60;30.00;;;;;;4803979;29;20069;-73
2023/12/05 10:03:38;;;;;;;4.45;1.50;;;0.80;29.70;;;;;;4787056;29;20059;-70
2023/12/05 10:06:06;;;;;;;2.03;1.60;;;;;;;;;;4804204;29;20050;-69
2023/12/05 10:08:37;;;;;;;3.60;1.60;;;;;;;;;;4797252;29;20059;-71
2023/12/05 10:11:04;;;;;;;1.45;1.10;;;;;;;;;;4803248;29;20067;-71
2023/12/05 10:13:30;;;;;;;1.38;1.27;;;1.80;30.00;;;;;;4802743;29;20047;-71
2023/12/05 10:15:59;;;;;;;2.08;1.85;;;;;;;;;;4803511;29;20111;-71
2023/12/05 10:18:26;;;;;;;2.45;1.52;;;;;;;;;;4787047;29;20065;-71
2023/12/05 10:20:52;;;;;;;1.75;1.65;;;2.30;31.20;;;;;;4803110;29;20055;-71
2023/12/05 10:23:18;;;;;;;1.43;1.20;;;;;;;;;;4803288;29;20062;-72
2023/12/05 10:25:44;;;;;;;6.38;2.95;;;;;;;;;;4804367;29;20409;-71
2023/12/05 10:28:12;;;;;;;1.27;1.25;;;;;;;;;;4803783;29;20406;-72
2023/12/05 10:30:38;;;;;;;2.13;1.30;;;;;;;;;;4802856;29;20059;-72
2023/12/05 10:33:14;;;;;;;1.13;1.10;;;;;;;;;;4803145;29;20126;-71
2023/12/05 10:35:44;;;;;;;0.50;0.50;;;;;;;;;;4800905;29;20055;-71
2023/12/05 10:38:10;;;;;;;3.90;2.05;;;;;;;;;;4802599;29;20059;-71
2023/12/05 10:40:50;;;;;;;0.95;0.95;;;-0.10;25.10;;;;;;4802662;29;20051;-70
2023/12/05 10:43:17;;;;;;;4.43;1.58;;;;;;;;;;4802104;29;20059;-70
2023/12/05 10:45:44;;;;;;;1.35;1.25;;;;;;;;;;4802672;29;20062;-71
2023/12/05 10:48:14;;;;;;;1.80;1.42;;;;;;;;;;4802655;29;20570;-69
2023/12/05 10:50:40;;;;;;;1.67;1.58;;;0.20;23.80;;;;;;4801902;29;20054;-70
2023/12/05 10:53:06;;;;;;;2.22;1.55;;;2.10;24.20;;;;;;4793430;29;20111;-69
2023/12/05 10:55:32;;;;;;;1.63;0.70;;;;;;;;;;4800931;29;20051;-68
2023/12/05 10:58:00;;;;;;;1.20;1.15;;;0.90;21.90;;;;;;4803165;29;20520;-72
2023/12/05 11:00:28;;;;;;;2.05;1.85;;;;;;;;;;4802770;29;20491;-67
2023/12/05 11:02:55;;;;;;;3.53;1.52;;;1.50;19.90;;;;;;4803119;29;20062;-68
2023/12/05 11:05:22;;;;;;;1.55;1.35;;;1.90;20.00;;;;;;4802660;29;20157;-69
2023/12/05 11:07:48;;;;;;;0.65;0.65;;;;;;;;;;4797877;29;20838;-69
2023/12/05 11:10:16;;;;;;;3.78;2.75;;;0.80;19.30;;;;;;4804647;29;20743;-68
2023/12/05 11:12:45;;;;;;;2.00;1.88;;;;;;;;;;4802439;29;20500;-68
2023/12/05 11:15:14;;;;;;;1.85;1.48;;;2.10;20.00;;;;;;4802208;29;20051;-68
2023/12/05 11:17:42;;;;;;;2.75;2.50;;;;;;;;;;4802520;29;20536;-68
2023/12/05 11:20:23;;;;;;;2.38;2.05;;;0.90;18.20;;;;;;4803021;29;20078;-68
2023/12/05 11:23:22;;;;;;;4.13;2.13;;;-0.10;16.60;;;;;;4801633;29;20055;-68
2023/12/05 11:26:00;;;;;;;0.68;0.68;;;;;;;;;;4801264;29;20713;-68
2023/12/05 11:28:36;;;;;;;1.65;1.55;;;-0.40;17.70;;;;;;4802674;29;20047;-68
2023/12/05 11:31:02;;;;;;;7.43;4.15;;;;;;;;;;4802048;29;20200;-69
2023/12/05 11:33:43;;;;;;;2.50;2.30;;;2.10;17.40;;;;;;4801950;29;20084;-68
2023/12/05 11:36:09;;;;;;;1.95;1.00;;;;;;;;;;4800557;29;20073;-68
2023/12/05 11:38:36;;;;;;;1.63;1.27;;;;;;;;;;4802745;29;20522;-69
2023/12/05 11:41:17;;;;;;;2.72;2.53;;;;;;;;;;4803005;29;20046;-68
2023/12/05 11:43:43;;;;;;;1.80;1.70;;;;;;;;;;4802649;29;20505;-67
2023/12/05 11:46:10;;;;;;;1.70;1.60;;;;;;;;;;4803295;29;20452;-67
2023/12/05 11:48:36;;;;;;;2.45;2.25;;;;;;;;;;4801491;29;20059;-67
2023/12/05 11:51:02;;;;;;;1.25;1.25;;;;;;;;;;4802365;29;20055;-67
2023/12/05 11:53:29;;;;;;;4.18;3.15;;;;;;;;;;4806040;29;20046;-67
2023/12/05 11:55:55;;;;;;;2.40;1.95;;;;;;;;;;4802323;29;20063;-67
2023/12/05 11:58:27;;;;;;;2.30;1.33;;;;;;;;;;4802175;29;20101;-67
2023/12/05 12:01:09;;;;;;;1.90;1.80;;;;;;;;;;4801735;29;20066;-68
2023/12/05 12:03:45;;;;;;;3.10;1.23;;;;;;;;;;4806325;29;20054;-67
2023/12/05 12:06:11;;;;;;;4.80;2.40;;;;;;;;;;4806375;29;20423;-67
2023/12/05 12:08:37;;;;;;;3.90;2.03;;;;;;;;;;4806293;29;20415;-67
2023/12/05 12:11:04;;;;;;;5.32;4.88;;;;;;;;;;4806232;29;20059;-67
2023/12/05 12:13:30;;;;;;;3.15;1.83;;;;;;;;;;4806470;29;20130;-67
2023/12/05 12:15:57;;;;;;;2.45;2.22;;;;;;;;;;4806468;29;20112;-67
2023/12/05 12:18:25;;;;;;;2.72;1.83;;;;;;;;;;4806474;29;20058;-66
2023/12/05 12:20:51;;;;;;;1.83;1.73;;;;;;;;;;4806312;29;20070;-66
2023/12/05 12:23:18;;;;;;;2.08;1.88;;;;;;;;;;4806396;29;20050;-67
2023/12/05 12:25:54;;;;;;;3.10;2.13;;;;;;;;;;4805821;29;20051;-67
2023/12/05 12:28:24;;;;;;;1.85;1.60;;;;;;;;;;4797073;29;20209;-68
2023/12/05 12:30:51;;;;;;;2.53;2.33;;;;;;;;;;4806089;29;20059;-68
2023/12/05 12:33:17;;;;;;;2.78;1.88;;;;;;;;;;4806107;29;20047;-68
2023/12/05 12:35:42;;;;;;;2.78;2.55;;;0.60;15.90;;;;;;4805928;29;20087;-67
2023/12/05 12:38:09;;;;;;;2.88;2.65;;;;;;;;;;4805998;29;20086;-67
2023/12/05 12:40:35;;;;;;;1.40;1.40;;;;;;;;;;4805868;29;20066;-67
2023/12/05 12:43:02;;;;;;;2.42;2.20;;;;;;;;;;4805480;29;20574;-67
2023/12/05 12:45:29;;;;;;;1.48;1.38;;;;;;;;;;4805290;29;20062;-71
2023/12/05 12:47:55;;;;;;;2.85;2.65;;;;;;;;;;4806053;29;20090;-67
2023/12/05 12:50:21;;;;;;;5.13;2.10;;;;;;;;;;4805416;29;20466;-66
2023/12/05 12:52:47;;;;;;;2.33;2.03;;;;;;;;;;4805992;29;20065;-66
2023/12/05 12:55:13;;;;;;;1.80;1.70;;;;;;;;;;4805468;29;20051;-67
2023/12/05 12:57:40;;;;;;;3.80;3.42;;;;;;;;;;4805797;29;20132;-66
2023/12/05 13:00:09;;;;;;;2.22;1.95;;;2.40;13.90;;;;;;4805237;29;20055;-66
2023/12/05 13:02:36;;;;;;;1.83;1.73;;;;;;;;;;4805431;29;20055;-67
2023/12/05 13:05:02;;;;;;;1.10;1.02;;;;;;;;;;4805353;29;20051;-65
2023/12/05 13:07:30;;;;;;;3.35;1.88;;;;;;;;;;4805554;29;20082;-65
2023/12/05 13:09:57;;;;;;;3.38;3.17;;;0.60;13.00;;;;;;4804924;29;20495;-66
2023/12/05 13:12:23;;;;;;;4.15;1.65;;;;;;;;;;4804724;29;20496;-65
2023/12/05 13:14:50;;;;;;;2.42;2.22;;;;;;;;;;4805132;29;20050;-65
2023/12/05 13:17:16;;;;;;;2.42;2.15;;;;;;;;;;4805561;29;20063;-65
2023/12/05 13:19:42;;;;;;;;;;;1.60;13.20;;;;;;4805180;29;20381;-65
2023/12/05 13:22:08;;;;;;;2.10;1.95;;;;;;;;;;4804980;29;19986;-66
2023/12/05 13:24:34;;;;;;;1.52;1.42;;;;;;;;;;4804363;29;20059;-65
2023/12/05 13:27:00;;;;;;;;;;;;;;;;;;4805009;29;20070;-66
2023/12/05 13:29:27;;;;;;;3.00;2.63;;;;;;;;;;4803782;29;19933;-65
2023/12/05 13:31:52;;;;;;;;;;;1.20;12.00;;;;;;4804513;29;20046;-65
2023/12/05 13:34:19;;;;;;;3.25;2.95;;;;;;;;;;4804668;29;19933;-66
2023/12/05 13:36:45;;;;;;;3.72;1.75;;;;;;;;;;4805339;29;20055;-65
2023/12/05 13:39:13;;;;;;;;;;;2.00;13.30;;;;;;4804498;29;20871;-65
2023/12/05 13:41:40;;;;;;;4.07;2.58;;;;;;;;;;4804823;29;19929;-66
2023/12/05 13:44:06;;;;;;;3.70;2.97;;;0.50;13.40;;;;;;4804818;29;20066;-65
2023/12/05 13:46:32;;;;;;;1.50;1.45;;;;;;;;;;4788535;29;20057;-66
2023/12/05 13:49:04;;;;;;;2.92;2.58;;;;;;;;;;4804775;29;20051;-65
2023/12/05 13:51:31;;;;;;;4.35;2.05;;;;;;;;;;4804525;29;20112;-66
2023/12/05 13:53:57;;;;;;;1.63;1.52;;;;;;;;;;4804173;29;20096;-66
2023/12/05 13:56:23;;;;;;;1.90;1.73;;;;;;;;;;4804644;29;20058;-66
2023/12/05 13:58:49;;;;;;;1.60;1.50;;;;;;;;;;4804237;29;20078;-66
2023/12/05 14:01:15;;;;;;;2.83;2.22;;;1.40;16.80;;;;;;4804555;29;20051;-66
2023/12/05 14:03:41;;;;;;;4.20;3.85;;;;;;;;;;4804189;29;20054;-66
2023/12/05 14:06:10;;;;;;;;;;;2.10;15.90;;;;;;4805053;29;20138;-66
2023/12/05 14:08:36;;;;;;;1.75;1.52;;;;;;;;;;4804224;29;19935;-66
2023/12/05 14:11:02;;;;;;;2.33;2.00;;;;;;;;;;4804607;29;20050;-66
2023/12/05 14:13:28;;;;;;;2.53;2.33;;;;;;;;;;4808077;29;20051;-66
2023/12/05 14:15:54;;;;;;;2.50;1.92;;;0.00;16.50;;;;;;4810289;29;20063;-65
2023/12/05 14:18:20;;;;;;;4.18;3.22;;;;;;;;;;4803761;29;20138;-65
2023/12/05 14:20:46;;;;;;;2.92;2.70;;;;;;;;;;4803925;29;20090;-66
2023/12/05 14:23:12;;;;;;;5.88;2.92;;;1.80;17.10;;;;;;4803714;29;20058;-67
2023/12/05 14:25:38;;;;;;;2.43;2.23;;;;;;;;;;4803123;29;20055;-66